Time;durP1;ratioP1;P1;durP2;ratioP2;P2;SDS_P1;SDS_P2;PMS_P1;PMS_P2;Temp;Humidity;BMP_temperature;BMP_pressure;BME280_temperature;BME280_humidity;BME280_pressure;Samples;Min_cycle;Max_cycle;Signal;HPM_P1;HPM_P2
2022/03/28 00:01:00;;;;;;;1.83;0.70;;;21.80;99.90;;;;;;5030332;28;20472;-92
2022/03/28 00:03:27;;;;;;;2.20;0.70;;;21.70;99.90;;;;;;5030145;28;20469;-85
2022/03/28 00:05:54;;;;;;;2.10;0.68;;;21.90;99.90;;;;;;5030920;28;20730;-88
2022/03/28 00:08:21;;;;;;;2.05;0.75;;;22.00;99.90;;;;;;5029853;28;20412;-92
2022/03/28 00:10:48;;;;;;;1.38;1.05;;;22.20;99.90;;;;;;5029998;28;20892;-86
2022/03/28 00:13:15;;;;;;;2.33;0.75;;;22.40;99.90;;;;;;5030406;28;20404;-88
2022/03/28 00:15:42;;;;;;;2.30;0.70;;;22.50;99.90;;;;;;5030892;28;20883;-93
2022/03/28 00:18:10;;;;;;;1.00;0.70;;;22.40;99.90;;;;;;5030074;28;20388;-88
2022/03/28 00:20:38;;;;;;;1.77;0.77;;;22.50;99.90;;;;;;5036043;28;20389;-85
2022/03/28 00:23:06;;;;;;;2.15;0.90;;;22.60;99.90;;;;;;5034729;28;20377;-92
2022/03/28 00:25:34;;;;;;;2.67;1.00;;;22.70;99.90;;;;;;5029663;28;20378;-84
2022/03/28 00:28:01;;;;;;;2.73;0.80;;;22.80;99.90;;;;;;5029445;28;20392;-91
2022/03/28 00:30:28;;;;;;;2.28;0.85;;;22.90;99.90;;;;;;5029476;28;20370;-83
2022/03/28 00:32:56;;;;;;;2.55;0.88;;;23.10;99.90;;;;;;5029377;28;20389;-91
2022/03/28 00:35:24;;;;;;;1.98;0.93;;;23.30;99.90;;;;;;5029167;28;21000;-85
2022/03/28 00:37:53;;;;;;;2.63;0.82;;;23.50;99.90;;;;;;5029322;28;20919;-87
2022/03/28 00:40:20;;;;;;;1.73;0.77;;;23.70;99.90;;;;;;5029129;28;20387;-88
2022/03/28 00:42:48;;;;;;;2.05;1.10;;;23.90;99.90;;;;;;5029574;28;20945;-93
2022/03/28 00:45:16;;;;;;;1.40;1.10;;;24.00;99.90;;;;;;5029318;28;20404;-87
2022/03/28 00:47:43;;;;;;;1.10;1.00;;;24.20;99.90;;;;;;5029821;28;20385;-86
2022/03/28 00:50:11;;;;;;;2.63;0.90;;;24.50;99.90;;;;;;5029265;28;20453;-85
2022/03/28 00:52:39;;;;;;;1.45;1.15;;;24.70;99.90;;;;;;5028696;28;20451;-91
2022/03/28 00:55:08;;;;;;;4.05;1.00;;;24.80;99.90;;;;;;5028939;28;20408;-90
2022/03/28 00:57:35;;;;;;;1.58;0.85;;;24.90;99.90;;;;;;5028906;28;20401;-88
2022/03/28 01:00:06;;;;;;;2.95;0.80;;;24.80;99.90;;;;;;5029013;28;20378;-90
2022/03/28 01:02:33;;;;;;;1.40;0.70;;;24.70;99.90;;;;;;5029446;28;20845;-84
2022/03/28 01:05:00;;;;;;;1.10;0.80;;;24.50;99.90;;;;;;5029143;28;20378;-91
2022/03/28 01:07:28;;;;;;;1.80;0.73;;;24.70;99.90;;;;;;5029115;28;20412;-90
2022/03/28 01:09:56;;;;;;;0.73;0.70;;;24.60;99.90;;;;;;5028813;28;20382;-85
2022/03/28 01:12:26;;;;;;;2.13;0.70;;;24.60;99.90;;;;;;5028902;28;20416;-91
2022/03/28 01:14:54;;;;;;;2.20;0.70;;;24.60;99.90;;;;;;5029598;28;20402;-84
2022/03/28 01:20:07;;;;;;;1.20;0.60;;;24.70;99.90;;;;;;5030185;28;20372;-88
2022/03/28 01:22:34;;;;;;;1.60;0.60;;;24.90;99.90;;;;;;5031118;28;20402;-85
2022/03/28 01:25:03;;;;;;;1.70;0.70;;;24.70;99.90;;;;;;5031598;28;20385;-93
2022/03/28 01:27:30;;;;;;;2.25;0.60;;;24.70;99.90;;;;;;5036505;28;20385;-89
2022/03/28 01:29:58;;;;;;;1.70;0.50;;;25.00;99.90;;;;;;5020112;28;20393;-91
2022/03/28 01:32:25;;;;;;;1.55;0.75;;;25.40;99.90;;;;;;5032709;28;20384;-88
2022/03/28 01:34:52;;;;;;;1.83;0.53;;;25.50;99.90;;;;;;5029524;28;20408;-92
2022/03/28 01:37:19;;;;;;;2.03;0.57;;;25.50;99.90;;;;;;5028550;28;20373;-91
2022/03/28 01:39:46;;;;;;;1.40;0.50;;;25.30;99.90;;;;;;5029282;28;20383;-88
2022/03/28 01:42:13;;;;;;;0.73;0.50;;;25.30;99.90;;;;;;5031382;28;20390;-89
2022/03/28 01:44:40;;;;;;;2.38;0.60;;;25.30;99.90;;;;;;5029450;28;20435;-92
2022/03/28 01:47:07;;;;;;;3.17;0.60;;;25.50;99.90;;;;;;5028547;28;20376;-86
2022/03/28 01:49:34;;;;;;;3.08;0.57;;;25.40;99.90;;;;;;5028433;28;20377;-85
2022/03/28 01:52:01;;;;;;;2.10;0.60;;;25.50;99.90;;;;;;5029073;28;20753;-94
2022/03/28 01:54:28;;;;;;;1.27;0.60;;;25.90;99.90;;;;;;5028539;28;20397;-92
2022/03/28 01:56:54;;;;;;;1.35;0.68;;;26.30;99.90;;;;;;5029886;28;20365;-91
2022/03/28 01:59:21;;;;;;;3.50;0.63;;;26.70;99.90;;;;;;5028975;28;20389;-91
2022/03/28 02:01:49;;;;;;;1.05;0.57;;;27.00;99.90;;;;;;5029902;28;20796;-87
2022/03/28 02:04:16;;;;;;;1.45;0.50;;;27.40;99.90;;;;;;5031938;28;20386;-86
2022/03/28 02:06:43;;;;;;;1.80;0.50;;;27.50;99.90;;;;;;5032423;28;20780;-87
2022/03/28 02:09:10;;;;;;;1.60;0.50;;;28.00;99.90;;;;;;5037715;28;20382;-85
2022/03/28 02:11:37;;;;;;;0.47;0.40;;;29.30;99.90;;;;;;5039284;28;20829;-88
2022/03/28 02:14:10;;;;;;;0.50;0.50;;;30.60;95.70;;;;;;5043553;28;20465;-85
2022/03/28 02:16:38;;;;;;;1.52;0.40;;;32.00;89.50;;;;;;5036851;28;20400;-86
2022/03/28 02:19:05;;;;;;;0.70;0.60;;;31.70;83.30;;;;;;5040334;28;20366;-90
2022/03/28 02:21:32;;;;;;;3.70;0.60;;;31.20;90.00;;;;;;5045825;28;20405;-88
2022/03/28 02:23:59;;;;;;;0.93;0.47;;;31.10;87.40;;;;;;5039261;28;20366;-92
2022/03/28 02:26:26;;;;;;;0.63;0.50;;;31.00;86.30;;;;;;5032053;28;20373;-86
2022/03/28 02:28:53;;;;;;;1.65;0.50;;;30.90;89.70;;;;;;5032312;28;20377;-88
2022/03/28 02:31:21;;;;;;;0.60;0.43;;;31.00;90.60;;;;;;5032651;28;20377;-96
2022/03/28 02:33:48;;;;;;;1.52;0.60;;;30.90;87.90;;;;;;5032219;28;20472;-92
2022/03/28 02:36:14;;;;;;;1.35;0.70;;;30.60;88.70;;;;;;5032128;28;20381;-89
2022/03/28 02:38:41;;;;;;;2.17;0.60;;;29.80;91.30;;;;;;5032069;28;20383;-88
2022/03/28 02:41:08;;;;;;;2.33;0.70;;;29.20;91.30;;;;;;5032731;28;20750;-88
2022/03/28 02:43:35;;;;;;;2.08;0.60;;;28.70;94.80;;;;;;5036617;28;20757;-87
2022/03/28 02:46:02;;;;;;;2.58;0.60;;;29.10;94.90;;;;;;5039191;28;20370;-89
2022/03/28 02:48:29;;;;;;;1.50;0.57;;;29.80;93.10;;;;;;5044551;28;20798;-90
2022/03/28 02:50:56;;;;;;;1.80;0.70;;;30.00;91.60;;;;;;5045965;28;20372;-86
2022/03/28 02:53:23;;;;;;;1.30;0.60;;;29.80;91.00;;;;;;5036736;28;20431;-96
2022/03/28 02:55:50;;;;;;;0.77;0.60;;;29.50;91.10;;;;;;5034211;28;20893;-94
2022/03/28 02:58:17;;;;;;;0.68;0.60;;;29.60;92.20;;;;;;5032575;28;20930;-86
2022/03/28 03:00:44;;;;;;;1.60;0.70;;;30.20;91.40;;;;;;5032473;28;20379;-87
2022/03/28 03:03:11;;;;;;;0.73;0.70;;;30.60;86.70;;;;;;5032299;28;20384;-88
2022/03/28 03:05:38;;;;;;;1.20;0.70;;;30.30;88.50;;;;;;5031874;28;20373;-91
2022/03/28 03:08:06;;;;;;;1.13;0.60;;;29.40;89.30;;;;;;5032769;28;20445;-94
2022/03/28 03:10:33;;;;;;;2.27;0.80;;;29.00;92.60;;;;;;5033343;28;20453;-94
2022/03/28 03:13:02;;;;;;;1.60;0.80;;;29.20;92.70;;;;;;5032387;28;20382;-91
2022/03/28 03:15:29;;;;;;;1.40;0.67;;;29.90;91.60;;;;;;5031852;28;20410;-85
2022/03/28 03:17:56;;;;;;;1.88;0.90;;;30.70;90.60;;;;;;5033296;28;20896;-93
2022/03/28 03:20:23;;;;;;;1.15;0.80;;;31.30;87.50;;;;;;5034243;28;20869;-87
2022/03/28 03:22:52;;;;;;;2.00;0.83;;;32.00;80.40;;;;;;5033143;28;20392;-90
2022/03/28 03:25:24;;;;;;;1.88;0.80;;;31.70;78.00;;;;;;5035243;28;20374;-94
2022/03/28 03:27:51;;;;;;;3.22;0.90;;;31.40;78.10;;;;;;5036044;28;20420;-88
2022/03/28 03:30:21;;;;;;;2.70;0.82;;;30.80;80.00;;;;;;5036001;28;20413;-89
2022/03/28 03:32:48;;;;;;;2.90;0.75;;;30.40;80.30;;;;;;5035521;28;20370;-88
2022/03/28 03:35:15;;;;;;;1.35;0.70;;;30.00;84.40;;;;;;5034221;28;20429;-93
2022/03/28 03:37:42;;;;;;;1.27;0.60;;;30.20;82.80;;;;;;5032776;28;20370;-86
2022/03/28 03:40:12;;;;;;;0.80;0.60;;;30.70;83.80;;;;;;5036806;28;20777;-90
2022/03/28 03:42:39;;;;;;;0.80;0.75;;;31.20;78.70;;;;;;5032231;28;20393;-87
2022/03/28 03:45:09;;;;;;;1.30;0.70;;;31.30;79.50;;;;;;5033796;28;20464;-90
2022/03/28 03:47:37;;;;;;;0.70;0.70;;;31.20;76.20;;;;;;5032847;28;20373;-87
2022/03/28 03:50:05;;;;;;;0.60;0.60;;;31.20;76.60;;;;;;5032129;28;20377;-87
2022/03/28 03:52:32;;;;;;;1.70;0.73;;;31.00;77.10;;;;;;5031275;28;20483;-93
2022/03/28 03:54:59;;;;;;;1.60;0.70;;;30.70;78.10;;;;;;5030837;28;20425;-86
2022/03/28 03:57:27;;;;;;;2.15;1.00;;;30.70;80.40;;;;;;5032232;28;20380;-94
2022/03/28 03:59:54;;;;;;;1.10;1.00;;;30.90;77.90;;;;;;5030337;28;20412;-87
2022/03/28 04:02:21;;;;;;;1.88;1.17;;;31.00;77.90;;;;;;5029761;28;20412;-92
2022/03/28 04:04:48;;;;;;;1.45;1.23;;;31.10;79.00;;;;;;5029740;28;20889;-92
2022/03/28 04:07:15;;;;;;;1.85;1.33;;;31.10;78.90;;;;;;5029776;28;20408;-91
2022/03/28 04:09:42;;;;;;;2.53;1.63;;;31.10;79.20;;;;;;5030237;28;20391;-88
2022/03/28 04:12:12;;;;;;;1.93;1.70;;;31.40;79.70;;;;;;5033169;28;20388;-86
2022/03/28 04:14:40;;;;;;;3.30;1.58;;;31.40;81.70;;;;;;5032689;28;20451;-85
2022/03/28 04:17:06;;;;;;;2.17;1.50;;;31.70;78.70;;;;;;5036150;28;20382;-85
2022/03/28 04:19:34;;;;;;;4.03;1.80;;;31.20;80.70;;;;;;5044989;28;20784;-94
2022/03/28 04:22:01;;;;;;;3.38;1.95;;;30.40;84.10;;;;;;5012767;28;20380;-91
2022/03/28 04:24:28;;;;;;;3.57;2.00;;;30.10;85.20;;;;;;5032428;28;20386;-90
2022/03/28 04:26:55;;;;;;;3.92;2.10;;;29.50;90.00;;;;;;5014843;28;20389;-94
2022/03/28 04:29:22;;;;;;;3.70;1.90;;;29.10;92.90;;;;;;5012809;28;20370;-89
2022/03/28 04:31:48;;;;;;;4.27;2.00;;;28.80;93.00;;;;;;5029486;28;20432;-90
2022/03/28 04:34:15;;;;;;;3.38;1.85;;;28.60;94.00;;;;;;5014572;28;20781;-95
2022/03/28 04:36:42;;;;;;;4.35;2.00;;;28.60;94.10;;;;;;5030789;28;20373;-90
2022/03/28 04:39:09;;;;;;;3.70;1.83;;;28.60;93.80;;;;;;5012798;28;20377;-90
2022/03/28 04:41:36;;;;;;;4.05;2.03;;;28.50;94.90;;;;;;5030447;28;20390;-89
2022/03/28 04:44:04;;;;;;;4.05;2.35;;;28.60;95.70;;;;;;5012460;28;20904;-85
2022/03/28 04:46:31;;;;;;;5.35;2.38;;;28.40;96.70;;;;;;5030581;28;20385;-88
2022/03/28 04:48:59;;;;;;;7.70;2.55;;;28.20;97.30;;;;;;5029176;28;20390;-92
2022/03/28 04:51:27;;;;;;;4.72;2.35;;;28.00;98.80;;;;;;5031344;28;20405;-91
2022/03/28 04:53:54;;;;;;;3.53;2.23;;;27.90;99.60;;;;;;5031951;28;20428;-95
2022/03/28 04:56:23;;;;;;;5.37;2.27;;;27.90;99.90;;;;;;5015977;28;20467;-85
2022/03/28 04:58:53;;;;;;;5.57;2.08;;;28.10;99.80;;;;;;5013139;28;20405;-84
2022/03/28 05:01:19;;;;;;;5.75;2.22;;;28.20;99.10;;;;;;5033963;28;20397;-94
2022/03/28 05:03:46;;;;;;;5.20;2.38;;;28.10;99.20;;;;;;5012552;28;20468;-96
2022/03/28 05:06:16;;;;;;;4.40;2.25;;;28.00;99.90;;;;;;5031520;28;20382;-84
2022/03/28 05:08:43;;;;;;;4.63;2.22;;;27.80;99.90;;;;;;5031221;28;20388;-95
2022/03/28 05:11:12;;;;;;;4.93;2.10;;;27.80;99.70;;;;;;5034014;28;20452;-86
2022/03/28 05:13:40;;;;;;;3.85;2.10;;;27.70;99.90;;;;;;5032172;28;20373;-82
2022/03/28 05:16:07;;;;;;;4.65;2.20;;;28.20;99.90;;;;;;5031984;28;20858;-90
2022/03/28 05:18:34;;;;;;;4.28;2.20;;;27.30;99.90;;;;;;5012713;28;20397;-95
2022/03/28 05:21:06;;;;;;;4.97;2.22;;;27.20;99.90;;;;;;5034930;28;20402;-83
2022/03/28 05:23:34;;;;;;;4.43;2.10;;;27.20;99.90;;;;;;5016850;28;20385;-83
2022/03/28 05:26:03;;;;;;;4.28;1.92;;;27.20;99.90;;;;;;5037037;28;20379;-85
2022/03/28 05:28:32;;;;;;;5.82;2.38;;;27.00;99.90;;;;;;5037950;28;20384;-85
2022/03/28 05:31:01;;;;;;;4.28;2.17;;;26.90;99.90;;;;;;5035081;28;20464;-96
2022/03/28 05:33:38;;;;;;;5.00;2.20;;;26.80;99.90;;;;;;5044258;28;20380;-83
2022/03/28 05:36:09;;;;;;;3.67;2.00;;;26.60;99.90;;;;;;5045113;28;20358;-91
2022/03/28 05:38:37;;;;;;;4.77;2.00;;;26.60;99.90;;;;;;5037752;28;20381;-93
2022/03/28 05:41:06;;;;;;;4.47;2.10;;;26.50;99.90;;;;;;5042052;28;20737;-83
2022/03/28 05:43:35;;;;;;;4.20;2.08;;;26.50;99.90;;;;;;5031299;28;20401;-81
2022/03/28 05:49:07;;;;;;;4.60;2.20;;;26.40;99.90;;;;;;5017873;28;20486;-89
2022/03/28 05:51:34;;;;;;;4.25;1.90;;;26.10;99.90;;;;;;5018812;28;20384;-85
2022/03/28 05:54:01;;;;;;;4.60;1.92;;;26.00;99.90;;;;;;5013352;28;20442;-83
2022/03/28 05:56:28;;;;;;;4.22;1.70;;;25.80;99.90;;;;;;5015636;28;20863;-85
2022/03/28 05:58:55;;;;;;;3.90;1.80;;;25.60;99.90;;;;;;5018765;28;20422;-87
2022/03/28 06:01:34;;;;;;;5.25;1.98;;;25.50;99.90;;;;;;5023598;28;20429;-83
2022/03/28 06:04:02;;;;;;;4.03;1.90;;;25.30;99.90;;;;;;5008910;28;20957;-85
2022/03/28 06:09:54;;;;;;;3.53;2.00;;;25.20;99.90;;;;;;5003242;28;20369;-88
2022/03/28 06:12:23;;;;;;;4.90;2.00;;;25.10;99.90;;;;;;4997994;28;20393;-81
2022/03/28 06:14:50;;;;;;;3.55;2.20;;;25.00;99.90;;;;;;5006037;28;20452;-80
2022/03/28 06:17:24;;;;;;;5.47;2.10;;;24.90;99.90;;;;;;5003067;28;20851;-83
2022/03/28 06:20:04;;;;;;;4.18;2.00;;;24.90;99.90;;;;;;4984781;28;20532;-84
2022/03/28 06:22:34;;;;;;;3.75;2.20;;;24.80;99.90;;;;;;5000138;28;20391;-85
2022/03/28 06:25:06;;;;;;;5.22;2.30;;;24.80;99.90;;;;;;5004173;28;20412;-83
2022/03/28 06:27:34;;;;;;;4.03;1.88;;;24.70;99.90;;;;;;5005026;28;20495;-94
2022/03/28 06:30:01;;;;;;;4.50;2.37;;;24.70;99.90;;;;;;5004637;28;20447;-88
2022/03/28 06:32:29;;;;;;;4.75;2.13;;;24.50;99.90;;;;;;4992751;28;20412;-85
2022/03/28 06:34:56;;;;;;;4.78;2.63;;;24.40;99.90;;;;;;4993224;28;20468;-81
2022/03/28 06:37:23;;;;;;;4.65;2.30;;;24.30;99.90;;;;;;4996228;28;20468;-96
2022/03/28 06:39:50;;;;;;;3.53;2.30;;;24.20;99.90;;;;;;4994400;28;20385;-89
2022/03/28 06:42:17;;;;;;;4.97;2.55;;;24.10;99.90;;;;;;4992644;28;20400;-94
2022/03/28 06:44:45;;;;;;;4.38;2.63;;;24.10;99.90;;;;;;4993147;28;20385;-83
2022/03/28 06:47:12;;;;;;;5.28;2.60;;;24.00;99.90;;;;;;5023647;28;20374;-89
2022/03/28 06:49:39;;;;;;;5.20;2.50;;;24.00;99.90;;;;;;5036073;28;20386;-83
2022/03/28 06:52:09;;;;;;;6.00;2.47;;;23.90;99.90;;;;;;5043870;28;20801;-91
2022/03/28 06:54:39;;;;;;;5.82;2.58;;;23.80;99.90;;;;;;5031324;28;20401;-82
2022/03/28 06:57:06;;;;;;;4.88;2.58;;;23.80;99.90;;;;;;5040267;28;20369;-96
2022/03/28 06:59:36;;;;;;;7.43;2.38;;;23.70;99.90;;;;;;5041037;28;20391;-96
2022/03/28 07:02:03;;;;;;;4.83;2.30;;;23.60;99.90;;;;;;5036409;28;20373;-87
2022/03/28 07:04:30;;;;;;;4.43;2.20;;;23.50;99.90;;;;;;5038415;28;20384;-94
2022/03/28 07:06:57;;;;;;;5.45;2.25;;;23.30;99.90;;;;;;5015042;28;20850;-86
2022/03/28 07:09:24;;;;;;;5.13;2.25;;;23.20;99.90;;;;;;5035863;28;20381;-92
2022/03/28 07:11:55;;;;;;;4.63;2.20;;;23.10;99.90;;;;;;5018979;28;20456;-83
2022/03/28 07:14:22;;;;;;;4.05;1.80;;;23.00;99.90;;;;;;5037487;28;20389;-86
2022/03/28 07:16:49;;;;;;;4.45;1.88;;;23.00;99.90;;;;;;5039009;28;20861;-85
2022/03/28 07:19:16;;;;;;;3.78;1.95;;;22.90;99.90;;;;;;5034675;28;20884;-92
2022/03/28 07:21:44;;;;;;;5.88;1.60;;;22.80;99.90;;;;;;5032435;28;20440;-92
2022/03/28 07:24:11;;;;;;;3.55;1.50;;;22.80;99.90;;;;;;5032802;28;20420;-87
2022/03/28 07:26:38;;;;;;;3.75;1.50;;;22.60;99.90;;;;;;5033032;28;20374;-88
2022/03/28 07:29:05;;;;;;;5.90;1.73;;;22.60;99.90;;;;;;5032330;28;20377;-83
2022/03/28 07:31:32;;;;;;;3.08;1.50;;;22.50;99.90;;;;;;5032149;28;20381;-84
2022/03/28 07:36:45;;;;;;;4.80;1.30;;;22.30;99.90;;;;;;5034414;28;20388;-85
2022/03/28 07:39:12;;;;;;;4.35;1.35;;;22.20;99.90;;;;;;5035631;28;20376;-83
2022/03/28 07:41:39;;;;;;;4.47;2.38;;;22.10;99.90;;;;;;5033206;28;20382;-87
2022/03/28 07:44:07;;;;;;;5.85;3.25;;;22.00;99.90;;;;;;5031665;28;20396;-85
2022/03/28 07:46:35;;;;;;;6.47;3.47;;;21.80;99.90;;;;;;5015984;28;20388;-85
2022/03/28 07:49:02;;;;;;;8.00;3.47;;;21.60;99.90;;;;;;5032377;28;20385;-85
2022/03/28 07:51:29;;;;;;;5.83;2.90;;;21.60;99.90;;;;;;5030083;28;20380;-85
2022/03/28 07:53:56;;;;;;;6.93;3.40;;;21.40;99.90;;;;;;5031146;28;20397;-84
2022/03/28 07:56:23;;;;;;;6.95;2.70;;;21.30;99.90;;;;;;5029935;28;20381;-85
2022/03/28 07:58:50;;;;;;;8.15;3.10;;;21.30;99.90;;;;;;5031879;28;20370;-87
2022/03/28 08:01:20;;;;;;;7.00;3.03;;;21.20;99.90;;;;;;5031688;28;20426;-89
2022/03/28 08:03:47;;;;;;;6.72;3.00;;;21.10;99.90;;;;;;5032659;28;20374;-91
2022/03/28 08:06:14;;;;;;;5.68;2.65;;;21.00;99.90;;;;;;5033849;28;20420;-95
2022/03/28 08:08:41;;;;;;;7.15;3.10;;;20.80;99.90;;;;;;5032994;28;20377;-87
2022/03/28 08:11:09;;;;;;;8.48;3.45;;;20.80;99.90;;;;;;5036575;28;20382;-96
2022/03/28 08:13:45;;;;;;;9.68;4.65;;;20.70;99.90;;;;;;5037561;28;20374;-84
2022/03/28 08:16:13;;;;;;;9.43;6.20;;;20.70;99.90;;;;;;5041146;28;20377;-88
2022/03/28 08:18:51;;;;;;;9.90;6.67;;;20.60;99.90;;;;;;5044059;28;20353;-92
2022/03/28 08:21:19;;;;;;;12.88;7.10;;;20.60;99.90;;;;;;5041571;28;20389;-88
2022/03/28 08:23:46;;;;;;;12.38;6.80;;;20.70;99.90;;;;;;5030758;28;20378;-91
2022/03/28 08:26:13;;;;;;;11.63;7.45;;;20.70;99.90;;;;;;5031632;28;20825;-86
2022/03/28 08:28:40;;;;;;;12.50;9.00;;;20.60;99.90;;;;;;5035444;28;20382;-87
2022/03/28 08:31:09;;;;;;;12.82;10.05;;;20.60;99.90;;;;;;5032574;28;20377;-84
2022/03/28 08:33:36;;;;;;;15.15;11.25;;;20.60;99.90;;;;;;5039120;28;20883;-94
2022/03/28 08:36:07;;;;;;;15.95;11.65;;;20.60;99.90;;;;;;5034431;28;20468;-88
2022/03/28 08:38:35;;;;;;;19.27;12.88;;;20.50;99.90;;;;;;5012879;28;20881;-94
2022/03/28 08:41:03;;;;;;;18.30;12.48;;;20.50;99.90;;;;;;5034410;28;20873;-92
2022/03/28 08:43:30;;;;;;;16.60;13.27;;;20.50;99.90;;;;;;5031321;28;20397;-85
2022/03/28 08:46:02;;;;;;;18.10;12.80;;;20.50;99.90;;;;;;5033341;28;20393;-87
2022/03/28 08:48:35;;;;;;;17.55;13.15;;;20.50;99.90;;;;;;5045094;28;20380;-86
2022/03/28 08:51:03;;;;;;;19.52;14.73;;;20.40;99.90;;;;;;5038328;28;20385;-86
2022/03/28 08:53:30;;;;;;;20.55;15.93;;;20.50;99.90;;;;;;5039456;28;20924;-87
2022/03/28 08:55:57;;;;;;;22.40;17.08;;;20.40;99.90;;;;;;5013224;28;20393;-88
2022/03/28 08:58:24;;;;;;;22.77;17.27;;;20.50;99.90;;;;;;5030059;28;20372;-86
2022/03/28 09:00:51;;;;;;;23.38;17.63;;;20.40;99.90;;;;;;5032125;28;20382;-91
2022/03/28 09:03:18;;;;;;;22.02;16.65;;;20.40;99.90;;;;;;5013696;28;20377;-89
2022/03/28 09:05:49;;;;;;;23.27;17.85;;;20.40;99.90;;;;;;5030519;28;20381;-89
2022/03/28 09:08:16;;;;;;;23.50;17.58;;;20.40;99.90;;;;;;5032431;28;20943;-90
2022/03/28 09:10:47;;;;;;;19.60;16.33;;;20.40;99.90;;;;;;5031267;28;20464;-89
2022/03/28 09:13:19;;;;;;;22.95;17.10;;;20.40;99.90;;;;;;5032561;28;20385;-87
2022/03/28 09:15:55;;;;;;;23.33;17.40;;;20.30;99.90;;;;;;5033539;28;20393;-87
2022/03/28 09:18:25;;;;;;;21.25;15.77;;;20.30;99.90;;;;;;5033095;28;20374;-90
2022/03/28 09:20:58;;;;;;;22.27;15.38;;;20.40;99.90;;;;;;5033241;28;20377;-89
2022/03/28 09:23:30;;;;;;;19.48;13.85;;;20.30;99.90;;;;;;5033619;28;20365;-89
2022/03/28 09:25:58;;;;;;;16.70;12.20;;;20.30;99.90;;;;;;5033356;28;20373;-89
2022/03/28 09:28:38;;;;;;;16.48;12.45;;;20.30;99.90;;;;;;5033414;28;20369;-92
2022/03/28 09:31:32;;;;;;;16.35;12.68;;;20.20;99.90;;;;;;5015233;28;20417;-92
2022/03/28 09:34:12;;;;;;;16.48;12.70;;;20.20;99.90;;;;;;5016589;28;20484;-91
2022/03/28 09:36:55;;;;;;;16.83;13.30;;;20.20;99.90;;;;;;5016776;28;20393;-91
2022/03/28 09:39:26;;;;;;;16.95;12.77;;;20.20;99.90;;;;;;5036142;28;20358;-92
2022/03/28 09:42:04;;;;;;;14.25;11.30;;;20.20;99.90;;;;;;5040383;28;20385;-91
2022/03/28 09:44:38;;;;;;;15.05;11.63;;;20.20;99.90;;;;;;5020720;28;20397;-88
2022/03/28 09:47:19;;;;;;;13.45;10.20;;;20.20;99.90;;;;;;5034865;28;20956;-94
2022/03/28 09:49:49;;;;;;;16.40;9.80;;;20.20;99.90;;;;;;5050387;28;20854;-89
2022/03/28 09:52:20;;;;;;;14.40;9.63;;;20.20;99.90;;;;;;5034282;28;20397;-94
2022/03/28 09:55:05;;;;;;;13.93;10.60;;;20.20;99.90;;;;;;5034528;28;20411;-94
2022/03/28 09:57:34;;;;;;;14.90;9.27;;;20.20;99.90;;;;;;5034335;28;20362;-94
2022/03/28 10:00:19;;;;;;;13.20;9.18;;;20.20;99.90;;;;;;5017890;28;20392;-94
2022/03/28 10:02:47;;;;;;;14.05;9.82;;;20.10;99.90;;;;;;5035949;28;20378;-94
2022/03/28 10:05:14;;;;;;;13.75;9.20;;;20.10;99.90;;;;;;5041552;28;20374;-88
2022/03/28 10:07:42;;;;;;;14.73;10.40;;;20.10;99.90;;;;;;5040826;28;20379;-91
2022/03/28 10:10:09;;;;;;;15.63;10.40;;;20.10;99.90;;;;;;5016520;28;20374;-86
2022/03/28 10:12:38;;;;;;;14.47;11.27;;;20.10;99.90;;;;;;5033859;28;20380;-88
2022/03/28 10:15:06;;;;;;;15.00;12.23;;;20.10;99.90;;;;;;5033206;28;20873;-92
2022/03/28 10:17:33;;;;;;;16.30;13.67;;;20.00;99.90;;;;;;5034283;28;20401;-86
2022/03/28 10:20:02;;;;;;;16.65;13.70;;;20.10;99.90;;;;;;5033830;28;20747;-88
2022/03/28 10:22:52;;;;;;;18.05;14.70;;;20.00;99.90;;;;;;5015182;28;20382;-86
2022/03/28 10:25:22;;;;;;;20.00;15.73;;;20.10;99.90;;;;;;5015672;28;20900;-88
2022/03/28 10:27:52;;;;;;;18.02;15.10;;;20.10;99.90;;;;;;5032712;28;20385;-85
2022/03/28 10:30:24;;;;;;;24.02;17.33;;;20.10;99.90;;;;;;5034119;28;20445;-91
2022/03/28 10:33:10;;;;;;;22.10;18.17;;;20.10;99.90;;;;;;5035501;28;20436;-88
2022/03/28 10:35:38;;;;;;;21.58;18.60;;;20.10;99.90;;;;;;5015595;28;20407;-86
2022/03/28 10:38:17;;;;;;;25.13;20.20;;;20.10;99.90;;;;;;5014785;28;20381;-93
2022/03/28 10:41:07;;;;;;;24.45;20.05;;;20.10;99.90;;;;;;5032264;28;20424;-89
2022/03/28 10:43:35;;;;;;;24.83;20.35;;;20.10;99.90;;;;;;5032086;28;20397;-89
2022/03/28 10:46:10;;;;;;;24.77;21.25;;;20.10;99.90;;;;;;5033042;28;20398;-88
2022/03/28 10:48:46;;;;;;;24.98;21.52;;;20.10;99.90;;;;;;5027591;28;20393;-83
2022/03/28 10:51:21;;;;;;;26.10;21.40;;;20.10;99.90;;;;;;5036046;28;20931;-86
2022/03/28 10:53:57;;;;;;;30.42;22.92;;;20.10;99.90;;;;;;5031266;28;20381;-85
2022/03/28 10:56:37;;;;;;;24.17;21.08;;;20.10;99.90;;;;;;5032744;28;20438;-87
2022/03/28 10:59:12;;;;;;;22.92;18.98;;;20.10;99.90;;;;;;5032635;28;20439;-86
2022/03/28 11:01:49;;;;;;;20.88;18.02;;;20.00;99.90;;;;;;5034469;28;20396;-88
2022/03/28 11:04:18;;;;;;;23.58;19.90;;;20.10;99.90;;;;;;5031828;28;20373;-90
2022/03/28 11:07:00;;;;;;;22.80;20.27;;;20.00;99.90;;;;;;5015645;28;20412;-88
2022/03/28 11:09:43;;;;;;;21.27;19.08;;;20.10;99.90;;;;;;5032219;28;20370;-87
2022/03/28 11:12:20;;;;;;;20.55;18.20;;;20.10;99.90;;;;;;5032365;28;20449;-86
2022/03/28 11:14:52;;;;;;;22.42;18.95;;;20.00;99.90;;;;;;5032109;28;20450;-92
2022/03/28 11:17:24;;;;;;;21.27;19.02;;;20.00;99.90;;;;;;5031012;28;20789;-84
2022/03/28 11:20:00;;;;;;;25.13;19.85;;;20.10;99.90;;;;;;5013062;28;20477;-88
2022/03/28 11:22:54;;;;;;;23.55;19.13;;;20.10;99.90;;;;;;5031779;28;20477;-89
2022/03/28 11:25:35;;;;;;;24.20;19.92;;;20.00;99.90;;;;;;5031103;28;20405;-85
2022/03/28 11:28:06;;;;;;;23.52;19.13;;;20.00;99.90;;;;;;5032181;28;20380;-95
2022/03/28 11:30:39;;;;;;;25.15;19.98;;;20.00;99.90;;;;;;5033739;28;20923;-93
2022/03/28 11:33:11;;;;;;;20.17;17.73;;;20.00;99.90;;;;;;5014568;28;20877;-93
2022/03/28 11:35:40;;;;;;;20.30;17.45;;;20.00;99.90;;;;;;5032621;28;20415;-94
2022/03/28 11:38:07;;;;;;;20.40;17.75;;;20.00;99.90;;;;;;5032985;28;20363;-88
2022/03/28 11:40:39;;;;;;;19.40;16.30;;;20.00;99.90;;;;;;5033747;28;20382;-88
2022/03/28 11:43:07;;;;;;;18.58;14.93;;;20.00;99.90;;;;;;5032391;28;20404;-94
2022/03/28 11:45:34;;;;;;;18.48;14.57;;;20.00;99.90;;;;;;5031377;28;20384;-95
2022/03/28 11:48:02;;;;;;;16.38;14.57;;;19.90;99.90;;;;;;5031817;28;20449;-89
2022/03/28 11:50:31;;;;;;;16.00;14.18;;;19.90;99.90;;;;;;5031625;28;20428;-89
2022/03/28 11:52:59;;;;;;;17.30;14.52;;;19.90;99.90;;;;;;5031915;28;20405;-94
2022/03/28 11:55:29;;;;;;;17.73;14.98;;;19.90;99.90;;;;;;5013280;28;20408;-93
2022/03/28 11:58:15;;;;;;;18.83;15.30;;;19.90;99.90;;;;;;5030525;28;20888;-89
2022/03/28 12:00:48;;;;;;;19.08;16.13;;;19.90;99.90;;;;;;5033320;28;20370;-92
2022/03/28 12:03:16;;;;;;;19.90;16.50;;;19.80;99.90;;;;;;5032907;28;20366;-89
2022/03/28 12:06:03;;;;;;;17.87;16.00;;;19.90;99.90;;;;;;5013999;28;20386;-91
2022/03/28 12:08:30;;;;;;;21.30;15.82;;;19.80;99.90;;;;;;5017089;28;20384;-89
2022/03/28 12:10:57;;;;;;;19.33;15.95;;;19.90;99.90;;;;;;5032959;28;20468;-93
2022/03/28 12:13:25;;;;;;;18.05;15.50;;;19.90;99.90;;;;;;5031916;28;20373;-91
2022/03/28 12:15:54;;;;;;;22.10;16.58;;;19.90;99.90;;;;;;5032012;28;20433;-95
2022/03/28 12:18:23;;;;;;;18.88;14.95;;;19.90;99.90;;;;;;5014002;28;20373;-90
2022/03/28 12:20:56;;;;;;;17.40;15.60;;;19.90;99.90;;;;;;5014050;28;20388;-93
2022/03/28 12:23:25;;;;;;;17.45;15.40;;;19.90;99.90;;;;;;5031192;28;20389;-94
2022/03/28 12:25:54;;;;;;;21.80;15.27;;;19.90;99.90;;;;;;5013254;28;20768;-95
2022/03/28 12:28:35;;;;;;;19.23;14.70;;;19.90;99.90;;;;;;5014512;28;20401;-93
2022/03/28 12:31:05;;;;;;;16.27;13.85;;;19.90;99.90;;;;;;5031315;28;20377;-90
2022/03/28 12:33:34;;;;;;;16.13;14.20;;;19.80;99.90;;;;;;5031725;28;20370;-93
2022/03/28 12:36:03;;;;;;;18.13;13.23;;;19.80;99.90;;;;;;5031875;28;20464;-90
2022/03/28 12:38:38;;;;;;;20.27;13.57;;;19.80;99.90;;;;;;5014560;28;20381;-88
2022/03/28 12:41:10;;;;;;;14.90;12.52;;;19.80;99.90;;;;;;5034695;28;20378;-87
2022/03/28 12:43:38;;;;;;;20.60;13.40;;;19.90;99.90;;;;;;5022583;28;20389;-89
2022/03/28 12:46:13;;;;;;;19.33;13.57;;;19.80;99.90;;;;;;5045808;28;20867;-92
2022/03/28 12:48:49;;;;;;;15.93;13.97;;;19.80;99.90;;;;;;5016029;28;20444;-92
2022/03/28 12:51:38;;;;;;;20.70;14.55;;;19.90;99.90;;;;;;5014868;28;20382;-90
2022/03/28 12:54:07;;;;;;;18.63;15.30;;;19.80;99.90;;;;;;5033495;28;20493;-90
2022/03/28 12:56:54;;;;;;;19.50;15.95;;;19.80;99.90;;;;;;5013769;28;20382;-96
2022/03/28 12:59:24;;;;;;;18.55;14.93;;;19.80;99.90;;;;;;5013779;28;20409;-89
2022/03/28 13:01:53;;;;;;;17.42;14.85;;;19.80;99.90;;;;;;5013309;28;20427;-88
2022/03/28 13:04:23;;;;;;;23.90;15.07;;;19.80;99.90;;;;;;5012960;28;20381;-89